チュニス・カルタゴ国際空港の過去48時間の天気

チュニス・カルタゴ国際空港 (Tunis-Carthage)

現在時刻: 9/23 00:07 CET (9/22 23:07 UTC) 以下の時間は現地時間です。

過去48時間のMETAR気象情報
時間 風向 風速(m/s) 視程 気温(℃) 湿度(%) 気圧(hPa) 天気現象
22 23:30 東北東 2 10km以上 26 89 1016
22 23:00 2 10km以上 26 89 1016
22 22:30 2 10km以上 26 89 1016
22 22:00 東南東 3 10km以上 26 89 1016
22 21:30 東南東 2 10km以上 27 84 1016
22 21:00 2 10km以上 27 84 1016
22 20:30 2 10km以上 27 84 1016
22 20:00 東南東 2 10km以上 27 84 1015
22 19:30 2 10km以上 27 79 1015
22 19:00 不定 1 10km以上 27 79 1015
22 18:30 不定 1 10km以上 28 74 1015
22 18:00 北東 3 10km以上 28 74 1015
22 17:30 北東 3 10km以上 28 74 1015
22 17:00 北東 3 10km以上 28 74 1015
22 16:30 北北東 3 10km以上 29 66 1016
22 16:00 北東 4 10km以上 29 70 1016
22 15:30 北北東 4 10km以上 30 62 1016
22 15:00 北北東 4 10km以上 30 62 1016
22 14:30 北東 3 10km以上 31 59 1016
22 14:00 東北東 3 10km以上 31 55 1016
22 13:30 4 10km以上 31 52 1016
22 13:00 2 10km以上 30 59 1017
22 12:30 不定 2 10km以上 30 59 1017
22 12:00 不定 2 10km以上 29 58 1017
22 11:30 不定 1 10km以上 29 58 1018
22 11:00 不定 1 10km以上 29 58 1018
22 10:30 北北東 3 10km以上 29 58 1018
22 10:00 北北東 2 10km以上 28 62 1018
22 09:30 不定 1 10km以上 27 62 1018
22 09:00 不定 1 10km以上 26 65 1018
22 08:30 静穏 0 10km以上 26 65 1018
22 08:00 不定 1 10km以上 24 74 1018
22 07:30 不定 1 10km以上 23 78 1017
22 07:00 南南西 2 10km以上 23 73 1017
22 06:30 南西 2 10km以上 22 78 1017
22 06:00 南西 2 10km以上 23 78 1017
22 05:30 2 10km以上 22 78 1017
22 04:00 北北西 3 10km以上 23 73 1017
22 03:30 北西 3 10km以上 23 73 1018
22 03:00 西北西 4 10km以上 23 73 1018
22 02:30 西 5 10km以上 23 78 1019
22 02:00 西 5 10km以上 23 78 1020
22 01:00 北北西 2 10km以上 24 83 1018
22 00:30 北北東 2 10km以上 23 89 1018
22 00:00 2 10km以上 24 83 1018
21 22:30 5 10km以上 23 83 1018
21 21:30 西北西 9 8000m 23 78 1020 スコール 雷雨
21 21:00 西 7 8000m 26 74 1021 雷雨
21 20:30 2 10km以上 26 74 1019
DTTA 222230Z 07004KT 030V120 9999 SCT023 26/24 Q1016
DTTA 222200Z 10003KT 060V130 9999 SCT023 26/24 Q1016
DTTA 222130Z 10004KT 040V130 9999 SCT023 26/24 Q1016
DTTA 222100Z 11005KT 050V150 9999 SCT023 26/24 Q1016
DTTA 222030Z 11004KT 030V160 9999 SCT023 27/24 Q1016
DTTA 222000Z 10004KT 030V140 9999 SCT023 27/24 Q1016
DTTA 221930Z 10004KT 040V140 9999 SCT023 27/24 Q1016
DTTA 221900Z 11004KT 040V160 9999 SCT023 27/24 Q1015
DTTA 221830Z 10003KT 050V140 9999 SCT023 27/23 Q1015
DTTA 221800Z VRB02KT 9999 SCT023 27/23 Q1015
DTTA 221730Z VRB02KT 9999 SCT023 28/23 Q1015
DTTA 221700Z 04005KT 010V080 9999 SCT023 28/23 Q1015
DTTA 221630Z 04006KT 360V080 9999 SCT023 28/23 Q1015
DTTA 221600Z 05006KT 010V090 9999 SCT023 28/23 Q1015
DTTA 221530Z 03006KT 350V110 9999 SCT023 29/22 Q1016
DTTA 221500Z 04007KT 010V070 9999 SCT023 29/23 Q1016
DTTA 221430Z 02008KT 9999 SCT023 30/22 Q1016
DTTA 221400Z 03008KT 360V070 9999 SCT023 30/22 Q1016
DTTA 221330Z 05006KT 010V090 9999 SCT023 31/22 Q1016
DTTA 221300Z 06006KT 020V140 9999 SCT023 31/21 Q1016
DTTA 221230Z 01008KT 320V080 9999 SCT023 31/20 Q1016
DTTA 221200Z 10003KT 010V170 9999 SCT023 30/21 Q1017
DTTA 221130Z VRB03KT 9999 SCT023 30/21 Q1017
DTTA 221100Z VRB03KT 9999 SCT023 29/20 Q1017
DTTA 221030Z VRB02KT 9999 SCT023 29/20 Q1018
DTTA 221000Z VRB02KT 9999 SCT023 29/20 Q1018
DTTA 220930Z 03005KT 360V070 CAVOK 29/20 Q1018
DTTA 220900Z 02003KT 310V070 CAVOK 28/20 Q1018
DTTA 220830Z VRB01KT CAVOK 27/19 Q1018
DTTA 220800Z VRB02KT CAVOK 26/19 Q1018
DTTA 220730Z 00000KT CAVOK 26/19 Q1018
DTTA 220700Z VRB02KT CAVOK 24/19 Q1018
DTTA 220630Z VRB02KT CAVOK 23/19 Q1017
DTTA 220600Z 21003KT 9999 SCT026 23/18 Q1017
DTTA 220530Z 22004KT CAVOK 22/18 Q1017
DTTA 220500Z 22004KT 9999 FEW021 23/19 Q1017
DTTA 220430Z 18003KT 9999 FEW026 22/18 Q1017
DTTA 220300Z 34005KT 310V010 CAVOK 23/18 Q1017
DTTA 220230Z 32006KT CAVOK 23/18 Q1018
DTTA 220200Z 30007KT 9999 OVC023 23/18 Q1018
DTTA 220130Z 27009KT 240V310 9999 OVC021 23/19 Q1019
DTTA 220100Z 26009KT 9999 SCT026 23/19 Q1020
DTTA 220000Z 34004KT 9999 SCT026 24/21 Q1018
DTTA 212330Z 03003KT 360V090 9999 SCT026 23/21 Q1018
DTTA 212300Z 36003KT 320V040 9999 SCT026 24/21 Q1018
DTTA 212130Z 36010KT 9999 FEW026TCU 23/20 Q1018
DTTA 212030Z 29018KT 8000 SQ TSRA FEW030CB 23/19 Q1020
DTTA 212000Z 27013KT 8000 TSRA FEW030CB 26/21 Q1021
DTTA 211930Z 17004KT 120V220 CAVOK 26/21 Q1019